Hurdland, MO (63547)

7:04 AM CDT on August 30, 2015 (GMT -0500)
La Plata | | Change Station
CLOSE
Current Station
Personal Weather Station
Location: La Plata, MO
Elevation: 928 ft
Nearby Weather Stations

Elev 928 ft 40.03 °N, 92.48 °W | Updated 3 seconds ago

Fog
Fog
67.8 °F
Feels Like 67.8 °F
N
0.0
Wind Variable Wind from North
Gusts 1.6 mph

Today
High -- | Low -- °F
--% Chance of Precip.
Yesterday
High -- | Low -- °F
Precip. -- in
6:34 AM 7:44 PM
Full, 99% visible
Pressure 30.04 in
Visibility 0.2 miles
Clouds
Dew Point 68 °F
Humidity 99%
Rainfall 0.00 in
Snow Depth Not available.
UV Not available.
Pollen 10.20 out of 12
Air Quality Not available.
Flu Activity Not available.
METAR KIRK 301155Z AUTO 06005KT M1/4SM FG VV002 19/19 A3005 RMK AO2 SLP173 T01940189 10200 20189 53006
Pressure 30.04 in
Visibility 0.2 miles
Clouds
Dew Point 68 °F
Humidity 99%
Rainfall 0.00 in
Snow Depth Not available.
UV Not available.
Pollen 10.20 out of 12
Air Quality Not available.
Flu Activity Not available.
METAR KIRK 301155Z AUTO 06005KT M1/4SM FG VV002 19/19 A3005 RMK AO2 SLP173 T01940189 10200 20189 53006

10-Day Weather Forecast

×

Almanac

Astronomy

Aug. 30, 2015 Rise Set
Actual Time
Civil Twilight
Nautical Twilight
Astronomical Twilight
Moon
Length of Visible Light
Length of Day
Tomorrow will be .
, % of the Moon is Illuminated

Today's Extremes

State Highs State Lows

Community

WunderPhotos

Upload Photos

1,850,934 photos uploaded!

WunderBlogs® & News

Nearby

Air Quality

  Air Quality AQ Index Pollutant
Not available.

Snow Depth

Station Depth Elevation

Earthquake Activity

City Distance Mag. Time & Date
Minimum magnitude displayed is 2.5.

Coastal Water Temperatures

Place Temperature

Stations

Nearby Weather Stations

Station Location Temp. Windchill Dew Point Humidity Wind Precip. Elev Updated Type